createdAt,value
2019-03-02T00:01:29.003Z,99186.36
2019-03-02T00:03:56.799Z,99176.41
2019-03-02T00:06:23.657Z,99171.66
2019-03-02T00:08:50.671Z,99163.21
2019-03-02T00:11:17.820Z,99165.38
2019-03-02T00:13:46.490Z,99167.28
2019-03-02T00:16:13.183Z,99179.27
2019-03-02T00:18:40.002Z,99167.71
2019-03-02T00:21:06.688Z,99177.41
2019-03-02T00:23:33.423Z,99182.41
2019-03-02T00:26:00.507Z,99181.09
2019-03-02T00:28:27.344Z,99181.98
2019-03-02T00:30:54.873Z,99188.91
2019-03-02T00:33:22.709Z,99187.25
2019-03-02T00:35:49.463Z,99180.50
2019-03-02T00:38:16.171Z,99179.95
2019-03-02T00:40:42.942Z,99179.69
2019-03-02T00:43:09.643Z,99183.17
2019-03-02T00:45:36.372Z,99185.27
2019-03-02T00:48:03.084Z,99187.17
2019-03-02T00:50:30.156Z,99185.34
2019-03-02T00:52:59.137Z,99187.04
2019-03-02T00:55:28.561Z,99190.52
2019-03-02T00:57:54.531Z,99181.98
2019-03-02T01:00:21.209Z,99179.31
2019-03-02T01:02:48.312Z,99171.97
2019-03-02T01:05:15.039Z,99163.27
2019-03-02T01:07:42.177Z,99159.14
2019-03-02T01:10:09.927Z,99159.91
2019-03-02T01:12:36.652Z,99161.22
2019-03-02T01:15:08.503Z,99165.94
2019-03-02T01:17:34.937Z,99147.34
2019-03-02T01:20:01.781Z,99142.14
2019-03-02T01:22:28.890Z,99138.45
2019-03-02T01:24:55.637Z,99136.55
2019-03-02T01:27:22.638Z,99150.81
2019-03-02T01:29:51.634Z,99150.30
2019-03-02T01:32:18.797Z,99136.04
2019-03-02T01:34:45.926Z,99131.40
2019-03-02T01:37:12.628Z,99124.01
2019-03-02T01:39:39.419Z,99126.20
2019-03-02T01:42:06.436Z,99121.48
2019-03-02T01:44:33.134Z,99120.39
2019-03-02T01:46:59.845Z,99124.34
2019-03-02T01:49:26.579Z,99126.02
2019-03-02T01:51:54.750Z,99126.50
2019-03-02T01:54:22.082Z,99132.86
2019-03-02T01:56:48.777Z,99128.77
2019-03-02T01:59:15.483Z,99126.13
2019-03-02T02:01:42.209Z,99127.19
2019-03-02T02:04:09.280Z,99130.38
2019-03-02T02:06:36.181Z,99122.52
2019-03-02T02:09:05.699Z,99126.97
2019-03-02T02:11:32.735Z,99134.25
2019-03-02T02:13:59.438Z,99130.55
2019-03-02T02:16:26.151Z,99133.73
2019-03-02T02:18:53.597Z,99131.61
2019-03-02T02:21:20.294Z,99133.19
2019-03-02T02:23:50.853Z,99132.97
2019-03-02T02:26:17.657Z,99131.44
2019-03-02T02:28:44.817Z,99128.43
2019-03-02T02:31:11.608Z,99155.73
2019-03-02T02:33:43.257Z,99132.52
2019-03-02T02:36:07.421Z,99128.36
2019-03-02T02:38:34.127Z,99121.34
2019-03-02T02:41:00.865Z,99123.16
2019-03-02T02:43:27.666Z,99122.06
2019-03-02T02:45:55.270Z,99126.11
2019-03-02T02:48:26.276Z,99122.72
2019-03-02T02:50:50.649Z,99113.67
2019-03-02T02:53:17.453Z,99108.63
2019-03-02T02:55:44.839Z,99112.53
2019-03-02T02:58:12.598Z,99106.38
2019-03-02T03:00:40.196Z,99110.08
2019-03-02T03:03:06.895Z,99104.56
2019-03-02T03:05:33.667Z,99098.35
2019-03-02T03:08:00.513Z,99103.44
2019-03-02T03:10:35.245Z,99097.96
2019-03-02T03:13:04.052Z,99106.25
2019-03-02T03:15:36.952Z,99093.22
2019-03-02T03:18:07.295Z,99097.64
2019-03-02T03:20:32.964Z,99093.48
2019-03-02T03:23:01.981Z,99099.30
2019-03-02T03:25:28.759Z,99094.50
2019-03-02T03:27:55.492Z,99089.31
2019-03-02T03:30:33.984Z,99092.16
2019-03-02T03:32:55.740Z,99095.81
2019-03-02T03:35:20.147Z,99090.26
2019-03-02T03:37:51.194Z,99099.59
2019-03-02T03:40:20.077Z,99097.69
2019-03-02T03:42:46.081Z,99091.98
2019-03-02T03:45:12.931Z,99086.51
2019-03-02T03:47:43.550Z,99088.21
2019-03-02T03:50:14.074Z,99092.50
2019-03-02T03:52:38.958Z,99085.16
2019-03-02T03:55:07.585Z,99076.20
2019-03-02T03:57:34.330Z,99077.73
2019-03-02T04:00:01.075Z,99082.78
2019-03-02T04:02:31.350Z,99079.05
2019-03-02T04:04:56.381Z,99089.61
2019-03-02T04:07:23.128Z,99099.20
2019-03-02T04:09:49.869Z,99085.77
2019-03-02T04:12:19.772Z,99082.66
2019-03-02T04:14:48.928Z,99080.32
2019-03-02T04:17:15.624Z,99080.88
2019-03-02T04:19:42.585Z,99082.27
2019-03-02T04:22:10.814Z,99081.45
2019-03-02T04:24:39.553Z,99079.05
2019-03-02T04:27:06.494Z,99097.25
2019-03-02T04:29:33.456Z,99075.05
2019-03-02T04:32:00.512Z,99077.69
2019-03-02T04:34:27.317Z,99074.13
2019-03-02T04:36:54.492Z,99074.89
2019-03-02T04:39:21.242Z,99070.91
2019-03-02T04:41:47.932Z,99077.73
2019-03-02T04:44:14.651Z,99069.55
2019-03-02T04:46:41.513Z,99073.32
2019-03-02T04:49:10.965Z,99066.45
2019-03-02T04:51:38.819Z,99074.59
2019-03-02T04:54:05.924Z,99064.70
2019-03-02T04:56:34.556Z,99063.52
2019-03-02T04:59:02.974Z,99056.73
2019-03-02T05:01:30.112Z,99054.86
2019-03-02T05:03:57.297Z,99053.84
2019-03-02T05:06:25.056Z,99052.61
2019-03-02T05:08:51.756Z,99048.59
2019-03-02T05:11:18.578Z,99043.66
2019-03-02T05:13:47.094Z,99045.34
2019-03-02T05:16:13.918Z,99054.59
2019-03-02T05:18:40.618Z,99042.67
2019-03-02T05:21:07.745Z,99044.21
2019-03-02T05:23:36.526Z,99049.84
2019-03-02T05:26:03.277Z,99044.09
2019-03-02T05:28:32.988Z,99038.53
2019-03-02T05:31:02.641Z,99037.81
2019-03-02T05:33:31.096Z,99037.92
2019-03-02T05:35:57.806Z,99033.72
2019-03-02T05:38:24.962Z,99042.02
2019-03-02T05:40:51.692Z,99037.70
2019-03-02T05:43:18.629Z,99039.53
2019-03-02T05:45:45.455Z,99034.12
2019-03-02T05:48:12.270Z,99037.30
2019-03-02T05:50:39.354Z,99039.59
2019-03-02T05:53:06.538Z,99033.99
2019-03-02T05:55:33.223Z,99032.34
2019-03-02T05:58:00.020Z,99033.27
2019-03-02T06:00:26.724Z,99029.70
2019-03-02T06:02:53.456Z,99030.30
2019-03-02T06:05:20.162Z,99019.97
2019-03-02T06:07:47.172Z,99019.98
2019-03-02T06:10:13.977Z,99007.33
2019-03-02T06:12:40.676Z,99009.08
2019-03-02T06:15:08.669Z,99015.41
2019-03-02T06:17:35.417Z,99016.42
2019-03-02T06:20:04.166Z,99008.02
2019-03-02T06:22:31.144Z,99007.55
2019-03-02T06:24:57.839Z,99005.68
2019-03-02T06:27:25.345Z,99007.73
2019-03-02T06:29:52.152Z,99006.92
2019-03-02T06:32:18.962Z,99018.84
2019-03-02T06:34:45.705Z,99008.86
2019-03-02T06:37:12.443Z,99008.48
2019-03-02T06:39:41.069Z,99006.03
2019-03-02T06:42:09.936Z,99009.30
2019-03-02T06:44:36.758Z,99010.48
2019-03-02T06:47:05.647Z,99006.78
2019-03-02T06:49:37.114Z,99006.78
2019-03-02T06:52:03.814Z,98998.05
2019-03-02T06:54:30.666Z,98957.78
2019-03-02T06:56:59.062Z,98998.45
2019-03-02T06:59:25.829Z,99005.10
2019-03-02T07:01:52.959Z,99000.09
2019-03-02T07:04:21.872Z,99003.83
2019-03-02T07:06:48.977Z,99008.61
2019-03-02T07:09:15.727Z,99004.19
2019-03-02T07:11:44.352Z,99003.31
2019-03-02T07:14:11.054Z,99004.33
2019-03-02T07:16:37.771Z,99010.77
2019-03-02T07:19:23.393Z,99004.01
2019-03-02T07:21:50.099Z,99012.70
2019-03-02T07:24:16.843Z,99001.20
2019-03-02T07:26:43.930Z,99003.50
2019-03-02T07:29:13.895Z,99000.39
2019-03-02T07:31:39.301Z,99010.70
2019-03-02T07:34:08.799Z,98996.59
2019-03-02T07:36:35.340Z,99009.45
2019-03-02T07:39:03.018Z,99001.96
2019-03-02T07:41:30.093Z,99002.10
2019-03-02T07:43:56.826Z,99001.59
2019-03-02T07:46:23.679Z,99008.32
2019-03-02T07:48:52.834Z,99007.55
2019-03-02T07:51:19.688Z,99005.43
2019-03-02T07:53:46.437Z,99009.45
2019-03-02T07:56:13.462Z,99010.19
2019-03-02T07:58:40.228Z,99007.66
2019-03-02T08:01:06.973Z,99009.78
2019-03-02T08:03:34.035Z,99026.27
2019-03-02T08:06:01.339Z,99000.42
2019-03-02T08:08:28.303Z,99006.92
2019-03-02T08:10:55.168Z,98998.06
2019-03-02T08:13:21.927Z,99001.18
2019-03-02T08:15:48.753Z,99027.28
2019-03-02T08:18:15.499Z,98996.49
2019-03-02T08:20:42.854Z,98990.42
2019-03-02T08:23:09.921Z,99000.78
2019-03-02T08:25:37.653Z,98996.06
2019-03-02T08:28:06.732Z,98996.25
2019-03-02T08:30:37.481Z,98997.61
2019-03-02T08:33:04.222Z,98991.06
2019-03-02T08:35:30.921Z,98997.64
2019-03-02T08:37:58.037Z,98997.09
2019-03-02T08:40:25.474Z,98997.97
2019-03-02T08:42:52.419Z,98995.33
2019-03-02T08:45:22.565Z,98989.84
2019-03-02T08:47:50.732Z,98985.16
2019-03-02T08:50:19.934Z,98987.76
2019-03-02T08:52:46.679Z,98985.86
2019-03-02T08:55:13.956Z,98983.33
2019-03-02T08:57:40.739Z,98981.78
2019-03-02T09:00:11.305Z,98985.48
2019-03-02T09:02:38.385Z,98988.11
2019-03-02T09:05:07.639Z,98997.73
2019-03-02T09:07:35.639Z,98982.00
2019-03-02T09:10:02.521Z,98980.45
2019-03-02T09:12:29.605Z,98986.86
2019-03-02T09:14:56.312Z,98985.52
2019-03-02T09:17:23.053Z,98981.25
2019-03-02T09:19:50.031Z,98980.70
2019-03-02T09:22:16.980Z,98973.14
2019-03-02T09:24:45.883Z,98984.25
2019-03-02T09:27:12.806Z,98981.41
2019-03-02T09:29:42.091Z,98981.41
2019-03-02T09:32:11.014Z,98986.68
2019-03-02T09:34:40.530Z,98982.73
2019-03-02T09:37:08.118Z,98978.78
2019-03-02T09:39:38.204Z,98977.95
2019-03-02T09:42:05.247Z,98981.33
2019-03-02T09:44:32.757Z,98990.61
2019-03-02T09:47:00.984Z,98979.06
2019-03-02T09:49:28.015Z,98978.85
2019-03-02T09:51:56.996Z,98974.09
2019-03-02T09:54:23.881Z,98971.56
2019-03-02T09:56:50.659Z,98975.82
2019-03-02T09:59:17.795Z,98971.68
2019-03-02T10:01:45.091Z,98964.66
2019-03-02T10:04:15.010Z,99011.36
2019-03-02T10:06:41.723Z,98976.28
2019-03-02T10:09:08.964Z,98980.69
2019-03-02T10:11:35.742Z,98978.86
2019-03-02T10:14:24.908Z,98973.13
2019-03-02T10:16:50.721Z,98992.94
2019-03-02T10:19:17.442Z,99000.45
2019-03-02T10:21:47.458Z,98982.55
2019-03-02T10:24:13.538Z,98973.77
2019-03-02T10:26:43.471Z,98973.48
2019-03-02T10:29:10.850Z,98968.50
2019-03-02T10:31:40.535Z,98971.70
2019-03-02T10:34:08.628Z,98961.72
2019-03-02T10:36:38.165Z,98958.06
2019-03-02T10:39:06.342Z,98953.66
2019-03-02T10:41:33.065Z,98957.69
2019-03-02T10:43:59.946Z,98949.81
2019-03-02T10:46:28.959Z,98950.58
2019-03-02T10:48:59.168Z,98953.22
2019-03-02T10:51:26.051Z,98951.63
2019-03-02T10:53:55.931Z,98957.70
2019-03-02T10:56:24.707Z,98953.44
2019-03-02T10:59:03.006Z,98960.05
2019-03-02T11:01:30.434Z,98956.07
2019-03-02T11:04:00.435Z,98950.80
2019-03-02T11:06:50.153Z,98955.59
2019-03-02T11:09:40.805Z,98962.17
2019-03-02T11:12:28.433Z,98948.73
2019-03-02T11:15:04.122Z,98947.70
2019-03-02T11:17:49.090Z,98940.02
2019-03-02T11:20:34.256Z,98950.09
2019-03-02T11:23:19.646Z,98933.45
2019-03-02T11:26:08.060Z,98938.77
2019-03-02T11:28:49.037Z,98932.93
2019-03-02T11:31:29.047Z,98936.10
2019-03-02T11:34:18.282Z,98937.73
2019-03-02T11:37:03.512Z,98930.88
2019-03-02T11:39:44.321Z,98923.72
2019-03-02T11:42:36.523Z,98928.73
2019-03-02T11:45:13.070Z,98925.52
2019-03-02T11:47:57.973Z,98926.84
2019-03-02T11:50:52.215Z,98934.77
2019-03-02T11:53:24.697Z,98920.78
2019-03-02T11:56:11.005Z,98920.01
2019-03-02T11:59:10.493Z,98922.39
2019-03-02T12:02:03.933Z,98916.28
2019-03-02T12:04:52.299Z,98911.82
2019-03-02T12:07:38.267Z,98911.27
2019-03-02T12:10:26.914Z,98903.34
2019-03-02T12:13:12.494Z,98894.88
2019-03-02T12:16:11.039Z,98895.89
2019-03-02T12:18:51.056Z,98900.84
2019-03-02T12:21:45.481Z,98892.30
2019-03-02T12:24:22.269Z,98893.95
2019-03-02T12:27:06.518Z,98884.39
2019-03-02T12:29:55.987Z,98886.76
2019-03-02T12:32:57.998Z,98887.78
2019-03-02T12:35:44.974Z,98880.61
2019-03-02T12:38:29.180Z,98882.48
2019-03-02T12:41:18.993Z,98878.25
2019-03-02T12:44:04.336Z,98872.14
2019-03-02T12:46:43.571Z,98873.22
2019-03-02T12:49:19.425Z,98078.92
2019-03-02T12:52:15.822Z,98869.20
2019-03-02T12:55:00.430Z,98875.36
2019-03-02T12:57:46.652Z,98872.66
2019-03-02T13:00:24.431Z,98872.19
2019-03-02T13:03:07.983Z,98872.48
2019-03-02T13:05:47.996Z,98865.64
2019-03-02T13:08:46.593Z,98863.28
2019-03-02T13:11:21.029Z,98861.67
2019-03-02T13:13:56.697Z,98853.44
2019-03-02T13:16:41.130Z,98852.58
2019-03-02T13:19:32.326Z,98851.23
2019-03-02T13:22:05.226Z,98852.06
2019-03-02T13:24:42.330Z,98844.09
2019-03-02T13:27:28.814Z,98842.09
2019-03-02T13:30:07.539Z,98839.23
2019-03-02T13:32:52.517Z,98829.85
2019-03-02T13:35:59.786Z,98824.02
2019-03-02T13:38:30.009Z,98827.98
2019-03-02T13:41:30.321Z,98830.97
2019-03-02T13:44:14.710Z,98825.48
2019-03-02T13:46:51.270Z,98826.81
2019-03-02T13:49:46.592Z,98813.92
2019-03-02T13:52:53.326Z,98826.13
2019-03-02T13:55:34.597Z,98827.53
2019-03-02T13:58:14.289Z,98821.72
2019-03-02T14:01:06.422Z,98819.95
2019-03-02T14:03:52.850Z,98818.94
2019-03-02T14:06:40.812Z,98821.48
2019-03-02T14:09:30.198Z,98824.61
2019-03-02T14:12:15.970Z,98824.08
2019-03-02T14:15:03.018Z,98825.16
2019-03-02T14:17:55.395Z,98863.36
2019-03-02T14:20:31.532Z,98849.01
2019-03-02T14:23:32.212Z,98837.84
2019-03-02T14:26:04.616Z,98837.07
2019-03-02T14:28:37.248Z,98839.31
2019-03-02T14:31:08.870Z,98839.30
2019-03-02T14:33:55.891Z,98844.05
2019-03-02T14:36:34.805Z,98852.57
2019-03-02T14:39:21.500Z,98837.79
2019-03-02T14:42:07.804Z,98851.25
2019-03-02T14:45:06.224Z,98843.84
2019-03-02T14:48:09.438Z,98838.59
2019-03-02T14:50:45.568Z,98864.31
2019-03-02T14:53:30.872Z,98845.00
2019-03-02T14:56:18.882Z,98850.05
2019-03-02T14:59:10.246Z,98886.55
2019-03-02T15:01:53.488Z,98844.47
2019-03-02T15:04:34.312Z,98846.84
2019-03-02T15:07:11.880Z,98842.88
2019-03-02T15:09:57.146Z,98851.89
2019-03-02T15:12:36.045Z,98843.17
2019-03-02T15:15:31.694Z,98845.30
2019-03-02T15:18:23.048Z,98849.31
2019-03-02T15:21:20.784Z,98866.27
2019-03-02T15:24:02.214Z,98841.89
2019-03-02T15:26:48.581Z,98849.30
2019-03-02T15:29:50.329Z,98855.65
2019-03-02T15:32:24.359Z,98852.00
2019-03-02T15:35:16.035Z,98853.81
2019-03-02T15:38:08.617Z,98842.79
2019-03-02T15:41:05.369Z,98848.84
2019-03-02T15:43:59.877Z,98847.77
2019-03-02T15:46:37.170Z,98839.30
2019-03-02T15:49:25.898Z,98833.77
2019-03-02T15:52:04.222Z,98827.34
2019-03-02T15:54:41.289Z,98847.23
2019-03-02T15:57:26.250Z,98825.56
2019-03-02T16:00:20.865Z,98843.03
2019-03-02T16:02:57.334Z,98825.56
2019-03-02T16:05:49.941Z,98826.08
2019-03-02T16:08:36.759Z,98832.70
2019-03-02T16:11:20.277Z,98820.80
2019-03-02T16:14:04.377Z,98820.31
2019-03-02T16:16:44.508Z,98829.52
2019-03-02T16:19:42.624Z,98817.16
2019-03-02T16:22:33.301Z,98815.59
2019-03-02T16:25:18.695Z,98822.20
2019-03-02T16:28:06.048Z,98809.26
2019-03-02T16:30:41.327Z,98796.84
2019-03-02T16:33:31.197Z,98791.58
2019-03-02T16:36:16.986Z,98798.44
2019-03-02T16:39:06.918Z,98812.72
2019-03-02T16:42:14.084Z,98822.21
2019-03-02T16:44:59.329Z,98818.00
2019-03-02T16:47:37.619Z,98820.89
2019-03-02T16:50:16.816Z,98827.25
2019-03-02T16:52:59.180Z,98849.45
2019-03-02T16:55:45.276Z,98825.38
2019-03-02T16:58:32.808Z,98830.70
2019-03-02T17:01:09.919Z,98828.56
2019-03-02T17:03:50.065Z,98838.34
2019-03-02T17:06:28.862Z,98844.14
2019-03-02T17:09:07.932Z,98884.55
2019-03-02T17:11:43.742Z,98854.73
2019-03-02T17:14:28.140Z,98856.02
2019-03-02T17:17:24.653Z,98853.64
2019-03-02T17:20:11.735Z,98853.11
2019-03-02T17:23:21.179Z,98866.05
2019-03-02T17:26:00.144Z,98860.48
2019-03-02T17:28:44.804Z,98858.36
2019-03-02T17:31:19.390Z,98867.89
2019-03-02T17:34:10.812Z,98861.02
2019-03-02T17:36:54.271Z,98862.08
2019-03-02T17:39:40.669Z,98872.92
2019-03-02T17:42:28.087Z,98863.64
2019-03-02T17:45:24.092Z,98868.39
2019-03-02T17:48:19.204Z,98872.58
2019-03-02T17:50:58.728Z,98879.72
2019-03-02T17:53:38.521Z,98879.70
2019-03-02T17:56:40.970Z,98888.45
2019-03-02T17:59:24.894Z,98882.36
2019-03-02T18:01:58.335Z,98880.78
2019-03-02T18:04:35.446Z,98884.50
2019-03-02T18:07:13.523Z,98888.71
2019-03-02T18:10:00.978Z,98881.30
2019-03-02T18:12:38.209Z,98889.98
2019-03-02T18:15:40.524Z,98892.12
2019-03-02T18:18:10.284Z,98926.45
2019-03-02T18:20:37.154Z,98887.11
2019-03-02T18:23:04.667Z,98890.28
2019-03-02T18:25:31.386Z,98895.56
2019-03-02T18:27:59.337Z,98883.66
2019-03-02T18:30:29.104Z,98899.22
2019-03-02T18:33:00.058Z,98893.94
2019-03-02T18:35:26.823Z,98897.88
2019-03-02T18:37:53.648Z,98888.37
2019-03-02T18:40:21.761Z,98904.20
2019-03-02T18:42:48.743Z,98914.47
2019-03-02T18:45:15.481Z,98907.62
2019-03-02T18:47:42.233Z,98906.05
2019-03-02T18:50:33.827Z,98902.61
2019-03-02T18:53:03.859Z,98903.95
2019-03-02T18:55:31.178Z,98911.86
2019-03-02T18:57:58.817Z,98903.71
2019-03-02T19:00:28.569Z,98947.00
2019-03-02T19:02:55.291Z,98908.75
2019-03-02T19:05:28.397Z,98907.16
2019-03-02T19:07:56.823Z,98911.66
2019-03-02T19:10:23.785Z,98914.58
2019-03-02T19:12:50.622Z,98923.81
2019-03-02T19:15:17.340Z,98913.25
2019-03-02T19:17:47.749Z,98927.52
2019-03-02T19:20:14.474Z,98920.09
2019-03-02T19:22:42.698Z,98912.92
2019-03-02T19:25:09.422Z,98916.39
2019-03-02T19:27:36.124Z,98943.59
2019-03-02T19:30:03.132Z,98901.38
2019-03-02T19:32:30.057Z,98911.87
2019-03-02T19:34:56.770Z,98925.59
2019-03-02T19:37:23.838Z,98915.30
2019-03-02T19:39:50.612Z,98913.73
2019-03-02T19:42:17.460Z,98917.16
2019-03-02T19:44:44.202Z,98917.14
2019-03-02T19:47:11.368Z,98929.55
2019-03-02T19:49:43.794Z,98933.80
2019-03-02T19:52:16.812Z,98934.07
2019-03-02T19:54:49.457Z,98940.14
2019-03-02T19:57:16.324Z,98925.34
2019-03-02T19:59:43.048Z,98924.81
2019-03-02T20:02:10.070Z,98930.88
2019-03-02T20:04:36.803Z,98929.53
2019-03-02T20:07:03.855Z,98922.12
2019-03-02T20:09:30.595Z,98923.72
2019-03-02T20:11:57.335Z,98925.86
2019-03-02T20:14:24.396Z,98923.78
2019-03-02T20:16:51.142Z,98922.70
2019-03-02T20:19:17.882Z,98932.20
2019-03-02T20:21:44.629Z,98919.77
2019-03-02T20:24:11.499Z,98942.77
2019-03-02T20:26:38.301Z,98915.84
2019-03-02T20:29:05.017Z,98932.70
2019-03-02T20:31:31.736Z,98920.81
2019-03-02T20:33:58.788Z,98922.42
2019-03-02T20:36:25.536Z,98925.89
2019-03-02T20:38:52.318Z,98929.02
2019-03-02T20:41:19.060Z,98925.08
2019-03-02T20:43:47.057Z,98939.30
2019-03-02T20:46:13.805Z,98936.68
2019-03-02T20:48:40.549Z,98939.08
2019-03-02T20:51:07.303Z,98931.14
2019-03-02T20:53:34.179Z,98944.88
2019-03-02T20:56:01.322Z,98941.95
2019-03-02T20:58:28.046Z,98952.81
2019-03-02T21:00:54.906Z,98948.32
2019-03-02T21:03:23.162Z,98949.64
2019-03-02T21:05:49.838Z,98948.59
2019-03-02T21:08:16.645Z,98956.52
2019-03-02T21:10:44.081Z,98955.23
2019-03-02T21:13:10.872Z,98970.53
2019-03-02T21:15:38.449Z,98957.87
2019-03-02T21:18:05.370Z,98962.64
2019-03-02T21:20:32.086Z,98953.41
2019-03-02T21:22:58.823Z,98954.98
2019-03-02T21:25:26.497Z,98950.47
2019-03-02T21:27:54.785Z,98948.09
2019-03-02T21:30:21.596Z,98938.61
2019-03-02T21:32:49.090Z,98949.98
2019-03-02T21:35:18.216Z,98936.26
2019-03-02T21:37:44.914Z,98944.47
2019-03-02T21:40:14.248Z,98942.63
2019-03-02T21:42:41.257Z,98942.08
2019-03-02T21:45:12.631Z,98941.53
2019-03-02T21:47:39.656Z,98765.41
2019-03-02T21:50:10.746Z,98942.06
2019-03-02T21:52:37.254Z,98944.17
2019-03-02T21:55:04.398Z,98933.86
2019-03-02T21:57:32.172Z,98943.90
2019-03-02T21:59:58.871Z,98936.78
2019-03-02T22:02:25.699Z,98932.55
2019-03-02T22:04:52.482Z,98941.25
2019-03-02T22:07:19.636Z,98935.17
2019-03-02T22:09:46.583Z,98952.08
2019-03-02T22:12:13.409Z,98942.28
2019-03-02T22:14:40.141Z,98955.23
2019-03-02T22:17:06.838Z,98939.08
2019-03-02T22:19:33.990Z,98940.92
2019-03-02T22:22:00.722Z,98932.72
2019-03-02T22:24:27.438Z,98946.47
2019-03-02T22:26:54.312Z,98933.02
2019-03-02T22:29:21.019Z,98939.34
2019-03-02T22:31:47.765Z,98947.00
2019-03-02T22:34:14.950Z,98939.34
2019-03-02T22:36:41.708Z,98935.13
2019-03-02T22:39:08.595Z,98940.14
2019-03-02T22:41:35.403Z,98902.27
2019-03-02T22:44:02.990Z,98935.88
2019-03-02T22:46:29.896Z,98932.17
2019-03-02T22:48:56.647Z,98931.89
2019-03-02T22:51:23.407Z,98932.19
2019-03-02T22:53:50.122Z,98937.20
2019-03-02T22:56:16.871Z,98932.72
2019-03-02T22:58:46.411Z,98929.28
2019-03-02T23:01:52.073Z,98930.88
2019-03-02T23:04:18.827Z,98929.56
2019-03-02T23:06:45.597Z,98918.22
2019-03-02T23:09:12.401Z,98919.02
2019-03-02T23:11:39.183Z,98904.97
2019-03-02T23:14:06.131Z,98901.25
2019-03-02T23:16:32.850Z,98888.84
2019-03-02T23:18:59.587Z,98914.20
2019-03-02T23:21:28.921Z,98880.96
2019-03-02T23:23:55.649Z,98891.23
2019-03-02T23:26:22.407Z,98884.91
2019-03-02T23:28:49.235Z,98888.36
2019-03-02T23:31:16.108Z,98885.75
2019-03-02T23:33:42.823Z,98887.30
2019-03-02T23:36:09.573Z,98882.55
2019-03-02T23:38:36.285Z,98882.55
2019-03-02T23:41:03.804Z,98889.44
2019-03-02T23:43:30.593Z,98893.92
2019-03-02T23:45:57.324Z,98883.31
2019-03-02T23:48:24.159Z,98882.55
2019-03-02T23:50:50.935Z,98884.14
2019-03-02T23:53:17.725Z,98882.84
2019-03-02T23:55:44.508Z,98893.94
2019-03-02T23:58:14.640Z,98879.94
